Time;durP1;ratioP1;P1;durP2;ratioP2;P2;SDS_P1;SDS_P2;PMS_P1;PMS_P2;Temp;Humidity;BMP_temperature;BMP_pressure;BME280_temperature;BME280_humidity;BME280_pressure;Samples;Min_cycle;Max_cycle;Signal;HPM_P1;HPM_P2
2022/04/16 00:02:02;;;;;;;13.45;8.13;;;;;;;;;;5031740;28;20038;-72
2022/04/16 00:04:29;;;;;;;10.00;7.25;;;;;;;;;;5032740;28;20535;-72
2022/04/16 00:06:58;;;;;;;14.98;9.05;;;;;;;;;;5029804;28;20022;-72
2022/04/16 00:09:24;;;;;;;12.15;8.10;;;;;;;;;;5031093;28;20034;-73
2022/04/16 00:11:50;;;;;;;13.23;8.35;;;;;;;;;;5031164;28;20087;-73
2022/04/16 00:14:16;;;;;;;10.85;7.70;;;;;;;;;;5032547;28;20045;-72
2022/04/16 00:16:44;;;;;;;12.80;7.88;;;;;;;;;;5024665;28;20449;-72
2022/04/16 00:19:11;;;;;;;14.82;8.50;;;;;;;;;;4988827;28;20103;-73
2022/04/16 00:21:38;;;;;;;9.45;7.53;;;;;;;;;;5012133;28;20087;-72
2022/04/16 00:24:05;;;;;;;11.82;7.68;;;;;;;;;;5010188;28;20466;-73
2022/04/16 00:26:31;;;;;;;12.50;7.88;;;;;;;;;;5010617;28;20130;-73
2022/04/16 00:28:59;;;;;;;12.32;8.55;;;;;;;;;;5013696;28;20077;-72
2022/04/16 00:31:26;;;;;;;10.93;8.02;;;;;;;;;;5010086;28;20107;-72
2022/04/16 00:33:52;;;;;;;12.15;8.10;;;;;;;;;;5007459;28;20447;-72
2022/04/16 00:36:18;;;;;;;11.10;8.30;;;;;;;;;;5012216;28;20389;-72
2022/04/16 00:38:44;;;;;;;11.07;7.80;;;;;;;;;;5009617;28;20037;-72
2022/04/16 00:41:12;;;;;;;9.32;7.38;;;;;;;;;;5012631;28;20068;-71
2022/04/16 00:43:38;;;;;;;11.70;8.18;;;;;;;;;;5011389;28;20030;-71
2022/04/16 00:46:04;;;;;;;12.15;8.50;;;;;;;;;;4998415;28;20034;-71
2022/04/16 00:48:30;;;;;;;12.35;7.25;;;;;;;;;;5008576;28;20053;-72
2022/04/16 00:50:56;;;;;;;12.55;7.75;;;;;;;;;;5014927;28;20084;-71
2022/04/16 00:53:25;;;;;;;16.52;8.35;;;;;;;;;;5010499;28;20562;-71
2022/04/16 00:55:51;;;;;;;15.18;8.90;;;;;;;;;;5007361;28;20050;-72
2022/04/16 00:58:17;;;;;;;14.98;8.60;;;;;;;;;;5012436;28;20034;-73
2022/04/16 01:00:43;;;;;;;15.73;8.63;;;;;;;;;;5011797;28;20100;-72
2022/04/16 01:03:09;;;;;;;14.23;9.32;;;;;;;;;;5010632;28;20026;-73
2022/04/16 01:05:37;;;;;;;15.55;9.32;;;;;;;;;;5018050;28;20041;-73
2022/04/16 01:08:04;;;;;;;15.35;8.98;;;;;;;;;;5005321;28;20109;-72
2022/04/16 01:10:31;;;;;;;21.30;12.30;;;;;;;;;;5012799;28;20040;-73
2022/04/16 01:12:57;;;;;;;14.23;9.32;;;;;;;;;;4993346;28;20029;-72
2022/04/16 01:15:24;;;;;;;16.00;10.07;;;;;;;;;;5006119;28;20034;-72
2022/04/16 01:17:51;;;;;;;19.20;10.48;;;;;;;;;;5021114;28;20057;-72
2022/04/16 01:20:18;;;;;;;17.30;10.23;;;;;;;;;;5031809;28;20022;-72
2022/04/16 01:22:48;;;;;;;17.25;10.27;;;;;;;;;;5013298;28;21159;-72
2022/04/16 01:25:14;;;;;;;16.92;9.98;;;;;;;;;;5031078;28;20481;-72
2022/04/16 01:27:43;;;;;;;18.80;10.80;;;;;;;;;;5032364;28;20041;-72
2022/04/16 01:30:11;;;;;;;15.32;9.63;;;;;;;;;;5024542;28;20429;-72
2022/04/16 01:32:37;;;;;;;13.60;10.20;;;;;;;;;;5023943;28;20026;-72
2022/04/16 01:35:05;;;;;;;17.35;11.35;;;;;;;;;;5023006;28;20052;-72
2022/04/16 01:37:34;;;;;;;15.73;10.40;;;;;;;;;;5032330;28;20031;-72
2022/04/16 01:40:00;;;;;;;16.77;10.75;;;;;;;;;;5008207;28;20071;-72
2022/04/16 01:42:29;;;;;;;12.90;10.40;;;;;;;;;;5024982;28;20080;-72
2022/04/16 01:44:55;;;;;;;18.40;11.48;;;;;;;;;;5028639;28;20108;-72
2022/04/16 01:47:21;;;;;;;20.52;10.82;;;;;;;;;;5031954;28;20499;-72
2022/04/16 01:49:47;;;;;;;17.10;11.07;;;;;;;;;;5029538;28;20030;-72
2022/04/16 01:52:13;;;;;;;19.83;11.95;;;;;;;;;;5045338;28;20033;-73
2022/04/16 01:54:41;;;;;;;21.55;12.40;;;;;;;;;;5030989;28;20091;-72
2022/04/16 01:57:07;;;;;;;21.65;11.98;;;;;;;;;;5032207;28;20420;-72
2022/04/16 01:59:33;;;;;;;16.92;11.95;;;;;;;;;;5036244;28;20025;-72
2022/04/16 02:01:59;;;;;;;16.42;11.43;;;;;;;;;;5031225;28;20065;-73
2022/04/16 02:04:26;;;;;;;15.05;11.25;;;;;;;;;;5027854;28;20108;-73
2022/04/16 02:06:52;;;;;;;18.60;12.25;;;;;;;;;;5020345;28;20670;-73
2022/04/16 02:09:18;;;;;;;17.73;11.25;;;;;;;;;;5030160;28;20045;-73
2022/04/16 02:11:44;;;;;;;17.08;12.40;;;;;;;;;;5013160;28;20036;-73
2022/04/16 02:14:10;;;;;;;15.40;11.73;;;;;;;;;;5026786;28;20047;-73
2022/04/16 02:16:36;;;;;;;17.17;11.60;;;;;;;;;;5024100;28;20129;-73
2022/04/16 02:19:02;;;;;;;19.75;12.27;;;;;;;;;;4994156;28;20077;-73
2022/04/16 02:21:30;;;;;;;21.40;12.25;;;;;;;;;;5002904;28;20026;-74
2022/04/16 02:23:57;;;;;;;20.70;12.52;;;;;;;;;;5009177;28;20041;-73
2022/04/16 02:26:23;;;;;;;21.10;11.60;;;;;;;;;;5011004;28;20061;-73
2022/04/16 02:28:49;;;;;;;17.13;11.82;;;;;;;;;;4992260;28;20100;-73
2022/04/16 02:31:15;;;;;;;16.13;10.90;;;;;;;;;;5010837;28;20057;-73
2022/04/16 02:33:42;;;;;;;14.88;11.75;;;;;;;;;;5010545;28;20088;-73
2022/04/16 02:36:08;;;;;;;27.10;13.43;;;;;;;;;;5008931;28;20030;-73
2022/04/16 02:38:35;;;;;;;23.40;14.63;;;;;;;;;;5011754;28;20026;-73
2022/04/16 02:41:01;;;;;;;20.08;14.48;;;;;;;;;;5010384;28;20030;-73
2022/04/16 02:43:27;;;;;;;21.52;14.75;;;;;;;;;;5010245;28;20037;-73
2022/04/16 02:48:39;;;;;;;21.92;15.10;;;;;;;;;;4991999;28;20042;-73
2022/04/16 02:51:06;;;;;;;20.52;14.98;;;;;;;;;;5003902;28;20018;-73
2022/04/16 02:53:32;;;;;;;26.73;15.43;;;;;;;;;;5010435;28;20034;-73
2022/04/16 02:55:58;;;;;;;25.70;15.82;;;;;;;;;;5009676;28;20038;-73
2022/04/16 02:58:24;;;;;;;24.40;15.25;;;;;;;;;;4992723;28;20030;-73
2022/04/16 03:00:50;;;;;;;25.77;15.55;;;;;;;;;;5013716;28;20575;-73
2022/04/16 03:03:16;;;;;;;24.40;15.75;;;;;;;;;;5009535;28;20466;-73
2022/04/16 03:05:42;;;;;;;28.55;16.42;;;;;;;;;;4994992;28;20030;-73
2022/04/16 03:08:12;;;;;;;27.35;15.75;;;;;;;;;;5003399;28;20575;-73
2022/04/16 03:10:39;;;;;;;24.40;16.55;;;;;;;;;;5013919;28;20374;-73
2022/04/16 03:13:05;;;;;;;22.17;15.98;;;;;;;;;;5013186;28;20128;-73
2022/04/16 03:18:16;;;;;;;25.33;16.48;;;;;;;;;;5032730;28;20551;-73
2022/04/16 03:20:42;;;;;;;26.35;17.73;;;;;;;;;;5029607;28;20033;-73
2022/04/16 03:23:09;;;;;;;25.88;17.33;;;;;;;;;;5032122;28;20374;-73
2022/04/16 03:25:38;;;;;;;26.58;16.95;;;;;;;;;;5017372;28;20036;-73
2022/04/16 03:28:04;;;;;;;25.10;17.45;;;;;;;;;;5033030;28;20033;-73
2022/04/16 03:30:31;;;;;;;25.45;17.65;;;;;;;;;;5015438;28;20473;-72
2022/04/16 03:32:57;;;;;;;29.27;18.13;;;;;;;;;;5030665;28;20116;-72
2022/04/16 03:35:23;;;;;;;33.30;18.30;;;;;;;;;;5032944;28;20041;-73
2022/04/16 03:37:50;;;;;;;30.15;18.58;;;;;;;;;;5033477;28;20034;-72
2022/04/16 03:40:16;;;;;;;28.15;19.77;;;;;;;;;;5024487;28;20029;-73
2022/04/16 03:42:46;;;;;;;27.23;18.58;;;;;;;;;;5032675;28;20381;-72
2022/04/16 03:45:23;;;;;;;29.45;19.17;;;;;;;;;;5034728;28;20032;-73
2022/04/16 03:47:49;;;;;;;27.75;18.70;;;;;;;;;;5033109;28;20033;-73
2022/04/16 03:50:16;;;;;;;29.27;19.60;;;;;;;;;;5033256;28;20372;-73
2022/04/16 03:52:46;;;;;;;26.98;18.98;;;;;;;;;;5032566;28;20419;-72
2022/04/16 04:00:53;;;;;;;26.02;18.13;;;;;;;;;;5010611;28;20057;-73
2022/04/16 04:03:19;;;;;;;28.00;19.33;;;;;;;;;;5030602;28;20033;-73
2022/04/16 04:05:46;;;;;;;31.05;19.00;;;;;;;;;;5033636;28;20381;-73
2022/04/16 04:08:12;;;;;;;30.17;19.58;;;;;;;;;;5012815;28;20651;-72
2022/04/16 04:10:39;;;;;;;31.67;22.05;;;;;;;;;;5013667;28;20044;-73
2022/04/16 04:13:05;;;;;;;28.92;20.08;;;;;;;;;;5028269;28;20083;-73
2022/04/16 04:15:31;;;;;;;27.05;19.40;;;;;;;;;;5033465;28;20041;-73
2022/04/16 04:17:59;;;;;;;35.20;19.38;;;;;;;;;;5032174;28;20080;-72
2022/04/16 04:20:25;;;;;;;32.80;20.77;;;;;;;;;;5029267;28;20431;-73
2022/04/16 04:22:51;;;;;;;32.72;21.35;;;;;;;;;;5026496;28;20087;-73
2022/04/16 04:25:17;;;;;;;33.38;21.98;;;;;;;;;;5005224;28;20164;-72
2022/04/16 04:27:43;;;;;;;46.38;29.75;;;;;;;;;;5020502;28;20084;-72
2022/04/16 04:30:10;;;;;;;34.63;23.25;;;;;;;;;;5031867;28;20041;-72
2022/04/16 04:32:36;;;;;;;38.97;21.40;;;;;;;;;;5029640;28;20050;-73
2022/04/16 04:35:03;;;;;;;33.45;20.98;;;;;;;;;;5030594;28;20442;-74
2022/04/16 04:37:29;;;;;;;25.73;18.83;;;;;;;;;;5025386;28;20049;-74
2022/04/16 04:39:55;;;;;;;29.63;21.80;;;;;;;;;;5017789;28;20049;-74
2022/04/16 04:42:27;;;;;;;30.27;21.08;;;;;;;;;;5031586;28;20483;-74
2022/04/16 04:44:54;;;;;;;33.92;22.35;;;;;;;;;;5031167;28;20029;-74
2022/04/16 04:47:20;;;;;;;33.20;21.75;;;;;;;;;;5030876;28;20029;-74
2022/04/16 04:49:46;;;;;;;33.03;21.38;;;;;;;;;;5030852;28;20025;-75
2022/04/16 04:52:24;;;;;;;33.45;21.92;;;;;;;;;;5033020;28;20112;-75
2022/04/16 04:54:50;;;;;;;29.38;21.40;;;;;;;;;;5039182;28;20034;-75
2022/04/16 04:57:16;;;;;;;30.88;22.90;;;;;;;;;;5026809;28;20029;-75
2022/04/16 04:59:43;;;;;;;28.90;21.70;;;;;;;;;;5030450;28;20028;-74
2022/04/16 05:02:09;;;;;;;30.38;22.80;;;;;;;;;;5027687;28;20038;-75
2022/04/16 05:04:35;;;;;;;31.02;22.40;;;;;;;;;;5015093;28;20041;-75
2022/04/16 05:07:03;;;;;;;35.13;22.95;;;;;;;;;;5029508;28;20034;-75
2022/04/16 05:09:29;;;;;;;33.80;23.25;;;;;;;;;;5030068;28;20029;-75
2022/04/16 05:11:55;;;;;;;36.17;23.27;;;;;;;;;;5030568;28;20049;-75
2022/04/16 05:14:21;;;;;;;35.75;23.27;;;;;;;;;;5017796;28;20177;-78
2022/04/16 05:16:47;;;;;;;45.22;28.63;;;;;;;;;;5026994;28;20136;-78
2022/04/16 05:19:16;;;;;;;34.55;24.17;;;;;;;;;;5027072;28;20022;-74
2022/04/16 05:21:43;;;;;;;30.58;22.67;;;;;;;;;;5023217;28;20042;-74
2022/04/16 05:24:09;;;;;;;34.90;24.65;;;;;;;;;;5012536;28;20051;-73
2022/04/16 05:26:35;;;;;;;33.28;23.10;;;;;;;;;;5031376;28;20778;-73
2022/04/16 05:29:02;;;;;;;35.10;24.10;;;;;;;;;;5030364;28;20084;-73
2022/04/16 05:31:30;;;;;;;37.63;25.75;;;;;;;;;;5010314;28;20521;-74
2022/04/16 05:36:40;;;;;;;33.78;25.27;;;;;;;;;;5019903;28;20163;-74
2022/04/16 05:39:06;;;;;;;41.42;27.05;;;;;;;;;;5031713;28;20112;-74
2022/04/16 05:41:35;;;;;;;36.70;25.90;;;;;;;;;;5029018;28;20033;-74
2022/04/16 05:44:02;;;;;;;35.10;25.48;;;;;;;;;;5026890;28;20060;-74
2022/04/16 05:46:28;;;;;;;37.65;26.33;;;;;;;;;;5032666;28;20038;-73
2022/04/16 05:48:54;;;;;;;34.88;24.48;;;;;;;;;;5033224;28;20045;-74
2022/04/16 05:51:21;;;;;;;38.65;26.40;;;;;;;;;;5029337;28;20082;-73
2022/04/16 05:53:47;;;;;;;36.40;24.63;;;;;;;;;;5030046;28;20401;-74
2022/04/16 05:56:14;;;;;;;33.13;25.02;;;;;;;;;;5000803;28;20030;-76
2022/04/16 05:58:40;;;;;;;33.10;24.75;;;;;;;;;;5001107;28;20466;-73
2022/04/16 06:01:07;;;;;;;45.05;29.23;;;;;;;;;;5023122;28;20061;-71
2022/04/16 06:03:34;;;;;;;36.75;24.80;;;;;;;;;;5018363;28;20028;-71
2022/04/16 06:06:01;;;;;;;30.27;20.95;;;;;;;;;;5030603;28;20025;-73
2022/04/16 06:08:27;;;;;;;33.53;19.58;;;;;;;;;;5029744;28;20029;-74
2022/04/16 06:10:53;;;;;;;28.23;18.67;;;;;;;;;;5009688;28;20114;-74
2022/04/16 06:13:19;;;;;;;26.17;16.63;;;;;;;;;;5028895;28;20100;-74
2022/04/16 06:15:45;;;;;;;23.90;16.80;;;;;;;;;;5011391;28;20374;-74
2022/04/16 06:18:11;;;;;;;25.80;17.23;;;;;;;;;;5009749;28;20398;-74
2022/04/16 06:20:37;;;;;;;21.58;15.23;;;;;;;;;;5010144;28;20033;-74
2022/04/16 06:23:04;;;;;;;24.42;15.23;;;;;;;;;;5001754;28;20041;-74
2022/04/16 06:25:30;;;;;;;20.10;13.10;;;;;;;;;;5015129;28;20030;-74
2022/04/16 06:27:56;;;;;;;21.83;14.57;;;;;;;;;;5005374;28;20152;-74
2022/04/16 06:30:22;;;;;;;21.77;13.35;;;;;;;;;;5011596;28;20030;-74
2022/04/16 06:32:48;;;;;;;23.77;13.52;;;;;;;;;;5012018;28;20034;-74
2022/04/16 06:35:14;;;;;;;18.05;12.27;;;;;;;;;;5011659;28;20118;-73
2022/04/16 06:37:44;;;;;;;19.17;12.85;;;;;;;;;;5006689;28;20070;-74
2022/04/16 06:40:11;;;;;;;22.55;13.75;;;;;;;;;;5008289;28;20104;-74
2022/04/16 06:42:37;;;;;;;20.73;12.52;;;;;;;;;;5007100;28;20041;-74
2022/04/16 06:45:07;;;;;;;22.20;11.93;;;;;;;;;;5012135;28;20068;-74
2022/04/16 06:47:33;;;;;;;16.95;12.13;;;;;;;;;;5017779;28;20045;-74
2022/04/16 06:49:59;;;;;;;20.17;13.15;;;;;;;;;;5008810;28;20453;-75
2022/04/16 06:52:25;;;;;;;21.70;13.32;;;;;;;;;;5009832;28;20068;-74
2022/04/16 06:54:51;;;;;;;21.30;13.30;;;;;;;;;;5002544;28;20078;-75
2022/04/16 06:57:17;;;;;;;18.38;12.40;;;;;;;;;;4999359;28;20498;-74
2022/04/16 06:59:43;;;;;;;24.42;16.77;;;;;;;;;;5001679;28;20026;-74
2022/04/16 07:02:10;;;;;;;15.10;10.57;;;;;;;;;;5005422;28;20428;-76
2022/04/16 07:04:36;;;;;;;18.20;11.18;;;;;;;;;;5002359;28;20074;-74
2022/04/16 07:07:02;;;;;;;17.88;11.27;;;;;;;;;;5006867;28;20053;-76
2022/04/16 07:09:28;;;;;;;17.52;11.18;;;;;;;;;;5009366;28;20109;-74
2022/04/16 07:11:54;;;;;;;19.00;11.15;;;;;;;;;;5010497;28;20034;-74
2022/04/16 07:14:21;;;;;;;15.30;9.75;;;;;;;;;;4991765;28;20097;-74
2022/04/16 07:16:47;;;;;;;13.73;9.73;;;;;;;;;;5014680;28;20077;-74
2022/04/16 07:19:13;;;;;;;16.52;9.85;;;;;;;;;;5021264;28;20064;-74
2022/04/16 07:21:39;;;;;;;17.83;10.10;;;;;;;;;;5027626;28;20409;-74
2022/04/16 07:24:05;;;;;;;17.02;9.93;;;;;;;;;;5025659;28;20041;-75
2022/04/16 07:26:31;;;;;;;14.38;9.43;;;;;;;;;;5022538;28;20037;-74
2022/04/16 07:28:57;;;;;;;11.63;9.45;;;;;;;;;;5030026;28;20120;-74
2022/04/16 07:31:23;;;;;;;13.48;9.43;;;;;;;;;;5022722;28;20030;-74
2022/04/16 07:33:49;;;;;;;16.52;9.70;;;;;;;;;;5026974;28;20673;-74
2022/04/16 07:36:15;;;;;;;15.88;9.70;;;;;;;;;;5029154;28;20099;-74
2022/04/16 07:38:43;;;;;;;12.73;9.18;;;;;;;;;;5010677;28;20429;-74
2022/04/16 07:41:09;;;;;;;16.60;11.95;;;;;;;;;;5016870;28;20063;-72
2022/04/16 07:43:35;;;;;;;16.38;11.00;;;;;;;;;;5004140;28;20060;-75
2022/04/16 07:46:01;;;;;;;13.98;10.05;;;;;;;;;;5012411;28;20117;-74
2022/04/16 07:48:27;;;;;;;12.77;8.63;;;;;;;;;;5022540;28;20393;-72
2022/04/16 07:50:53;;;;;;;12.95;9.13;;;;;;;;;;5012205;28;20033;-75
2022/04/16 07:53:19;;;;;;;10.88;9.00;;;;;;;;;;5031114;28;20083;-75
2022/04/16 07:55:45;;;;;;;12.73;8.55;;;;;;;;;;5021215;28;20038;-74
2022/04/16 07:58:11;;;;;;;10.98;8.25;;;;;;;;;;5032978;28;20034;-74
2022/04/16 08:00:37;;;;;;;13.95;8.73;;;;;;;;;;5034515;28;20030;-74
2022/04/16 08:03:03;;;;;;;11.90;8.38;;;;;;;;;;5027542;28;20144;-74
2022/04/16 08:05:29;;;;;;;11.20;8.20;;;;;;;;;;5022834;28;20350;-74
2022/04/16 08:07:56;;;;;;;12.25;8.48;;;;;;;;;;5026962;28;20034;-75
2022/04/16 08:10:22;;;;;;;10.50;8.07;;;;;;;;;;5032181;28;20104;-75
2022/04/16 08:12:48;;;;;;;11.35;7.88;;;;;;;;;;5039957;28;20048;-76
2022/04/16 08:15:14;;;;;;;12.07;7.97;;;;;;;;;;5027379;28;20042;-76
2022/04/16 08:17:40;;;;;;;12.70;8.32;;;;;;;;;;5032900;28;20107;-76
2022/04/16 08:20:06;;;;;;;13.10;7.60;;;;;;;;;;5033906;28;20029;-76
2022/04/16 08:22:34;;;;;;;11.57;7.65;;;;;;;;;;5033659;28;20060;-76
2022/04/16 08:27:45;;;;;;;9.95;7.32;;;;;;;;;;5028252;28;20798;-76
2022/04/16 08:30:15;;;;;;;8.70;6.65;;;;;;;;;;5018131;28;20030;-76
2022/04/16 08:32:41;;;;;;;15.35;8.52;;;;;;;;;;5032616;28;20041;-75
2022/04/16 08:35:08;;;;;;;11.55;7.60;;;;;;;;;;5024535;28;20073;-75
2022/04/16 08:37:34;;;;;;;11.18;6.68;;;;;;;;;;5018249;28;20030;-75
2022/04/16 08:40:00;;;;;;;9.32;6.20;;;;;;;;;;5032252;28;20105;-76
2022/04/16 08:42:27;;;;;;;8.40;6.55;;;;;;;;;;5035795;28;20135;-76
2022/04/16 08:44:53;;;;;;;12.18;7.20;;;;;;;;;;5021257;28;20053;-77
2022/04/16 08:47:20;;;;;;;8.50;6.22;;;;;;;;;;5029655;28;20030;-75
2022/04/16 08:49:46;;;;;;;10.23;7.10;;;;;;;;;;5032165;28;20059;-75
2022/04/16 08:52:12;;;;;;;8.43;6.30;;;;;;;;;;5039344;28;20541;-75
2022/04/16 08:54:41;;;;;;;8.70;5.18;;;;;;;;;;5031466;28;20041;-75
2022/04/16 08:57:07;;;;;;;7.60;5.43;;;;;;;;;;5015248;28;20541;-75
2022/04/16 08:59:33;;;;;;;8.65;5.82;;;;;;;;;;5030464;28;20036;-74
2022/04/16 09:02:00;;;;;;;9.10;5.75;;;;;;;;;;5030624;28;20037;-75
2022/04/16 09:04:31;;;;;;;8.63;5.63;;;;;;;;;;5030196;28;20038;-75
2022/04/16 09:07:01;;;;;;;6.00;4.25;;;;;;;;;;5022132;28;20098;-75
2022/04/16 09:09:30;;;;;;;8.82;5.20;;;;;;;;;;5052123;28;20032;-75
2022/04/16 09:11:56;;;;;;;6.45;4.82;;;;;;;;;;5018554;28;20030;-75
2022/04/16 09:14:43;;;;;;;7.97;5.20;;;;;;;;;;5030843;28;20041;-75
2022/04/16 09:17:09;;;;;;;6.97;4.70;;;;;;;;;;5030252;28;20041;-76
2022/04/16 09:19:35;;;;;;;7.90;5.28;;;;;;;;;;5025827;28;20171;-76
2022/04/16 09:22:01;;;;;;;7.20;4.95;;;;;;;;;;5019537;28;20038;-76
2022/04/16 09:24:27;;;;;;;6.88;5.43;;;;;;;;;;5046729;28;20502;-75
2022/04/16 09:26:53;;;;;;;7.25;4.78;;;;;;;;;;5031965;28;20113;-76
2022/04/16 09:29:19;;;;;;;5.78;3.78;;;;;;;;;;5022942;28;20405;-75
2022/04/16 09:31:46;;;;;;;4.90;3.50;;;;;;;;;;5025731;28;20037;-78
2022/04/16 09:34:18;;;;;;;4.95;2.92;;;;;;;;;;5026692;28;20040;-76
2022/04/16 09:36:44;;;;;;;3.95;2.60;;;;;;;;;;5003760;28;20022;-75
2022/04/16 09:39:11;;;;;;;5.05;2.75;;;;;;;;;;5030463;28;20028;-74
2022/04/16 09:41:41;;;;;;;7.25;3.10;;;;;;;;;;5031083;28;20562;-74
2022/04/16 09:44:23;;;;;;;3.83;2.45;;;;;;;;;;5026252;28;20462;-74
2022/04/16 09:46:49;;;;;;;9.45;5.50;;;;;;;;;;5019662;28;20026;-75
2022/04/16 09:49:16;;;;;;;5.18;3.00;;;;;;;;;;5021452;28;20108;-74
2022/04/16 09:51:43;;;;;;;5.32;2.38;;;21.00;94.30;;;;;;5027536;28;20436;-73
2022/04/16 09:54:09;;;;;;;3.17;1.95;;;;;;;;;;5028952;28;20084;-75
2022/04/16 09:56:37;;;;;;;3.38;1.98;;;;;;;;;;5031775;28;20437;-76
2022/04/16 09:59:04;;;;;;;3.42;2.13;;;;;;;;;;5023718;28;20489;-76
2022/04/16 10:01:31;;;;;;;4.45;1.77;;;;;;;;;;5029707;28;20033;-75
2022/04/16 10:03:58;;;;;;;2.28;1.58;;;;;;;;;;5033030;28;20064;-76
2022/04/16 10:06:25;;;;;;;2.40;1.25;;;;;;;;;;5019889;28;20484;-75
2022/04/16 10:08:51;;;;;;;2.95;1.45;;;;;;;;;;5006478;28;20112;-75
2022/04/16 10:11:40;;;;;;;2.05;1.23;;;;;;;;;;5031717;28;20108;-75
2022/04/16 10:14:10;;;;;;;2.53;1.30;;;;;;;;;;5027807;28;20041;-76
2022/04/16 10:17:01;;;;;;;2.10;1.63;;;22.20;91.10;;;;;;5027126;28;20509;-75
2022/04/16 10:19:37;;;;;;;2.17;1.45;;;;;;;;;;5030190;28;20029;-75
2022/04/16 10:22:03;;;;;;;2.53;1.33;;;;;;;;;;5030059;28;20040;-75
2022/04/16 10:24:29;;;;;;;14.50;8.68;;;;;;;;;;4999543;28;20052;-76
2022/04/16 10:27:04;;;;;;;4.30;3.15;;;21.80;90.70;;;;;;5024500;28;20021;-80
2022/04/16 10:29:39;;;;;;;1.80;1.38;;;;;;;;;;5006971;28;20045;-74
2022/04/16 10:32:18;;;;;;;2.20;1.17;;;;;;;;;;5014810;28;20062;-74
2022/04/16 10:34:45;;;;;;;1.65;1.30;;;;;;;;;;5026048;28;20486;-74
2022/04/16 10:37:24;;;;;;;2.80;1.23;;;;;;;;;;5010015;28;20037;-74
2022/04/16 10:39:56;;;;;;;1.88;1.00;;;;;;;;;;5028764;28;20420;-74
2022/04/16 10:42:51;;;;;;;2.92;1.10;;;22.30;90.10;;;;;;5028546;28;20030;-74
2022/04/16 10:45:17;;;;;;;1.65;1.17;;;;;;;;;;5025477;28;20104;-74
2022/04/16 10:47:43;;;;;;;2.55;1.10;;;;;;;;;;5029046;28;20030;-75
2022/04/16 10:50:17;;;;;;;2.03;1.00;;;;;;;;;;5026175;28;20034;-75
2022/04/16 10:53:02;;;;;;;1.60;0.90;;;;;;;;;;5012173;28;20022;-74
2022/04/16 10:55:32;;;;;;;1.77;1.30;;;;;;;;;;5019688;28;20079;-74
2022/04/16 10:58:03;;;;;;;3.13;1.25;;;;;;;;;;5028902;28;20034;-74
2022/04/16 11:00:44;;;;;;;0.80;0.80;;;;;;;;;;5027896;28;20029;-74
2022/04/16 11:03:11;;;;;;;2.35;1.20;;;;;;;;;;5029620;28;20109;-74
2022/04/16 11:05:37;;;;;;;1.33;1.08;;;;;;;;;;5028961;28;20037;-74
2022/04/16 11:08:05;;;;;;;3.47;1.23;;;;;;;;;;5030324;28;20401;-74
2022/04/16 11:10:31;;;;;;;3.67;1.20;;;;;;;;;;5020869;28;20041;-74
2022/04/16 11:12:57;;;;;;;1.60;1.13;;;;;;;;;;5027183;28;20030;-75
2022/04/16 11:15:24;;;;;;;2.10;1.10;;;;;;;;;;5030246;28;20042;-74
2022/04/16 11:17:54;;;;;;;3.53;1.15;;;;;;;;;;5020342;28;20500;-74
2022/04/16 11:20:21;;;;;;;1.15;1.00;;;;;;;;;;5016449;28;20048;-73
2022/04/16 11:22:48;;;;;;;1.10;1.00;;;;;;;;;;5025860;28;20128;-73
2022/04/16 11:25:14;;;;;;;1.42;1.02;;;;;;;;;;5022094;28;20053;-74
2022/04/16 11:35:59;;;;;;;2.45;0.85;;;;;;;;;;5015136;28;20121;-73
2022/04/16 11:38:29;;;;;;;3.03;0.80;;;;;;;;;;5020718;28;20037;-74
2022/04/16 11:40:56;;;;;;;5.72;3.03;;;;;;;;;;5020632;28;20096;-70
2022/04/16 11:43:23;;;;;;;5.30;3.35;;;;;;;;;;5028338;28;20049;-70
2022/04/16 11:45:50;;;;;;;1.63;1.08;;;;;;;;;;5033359;28;20033;-73
2022/04/16 11:48:16;;;;;;;3.13;0.73;;;;;;;;;;5027385;28;20025;-73
2022/04/16 11:50:43;;;;;;;1.17;0.65;;;;;;;;;;5032928;28;20392;-76
2022/04/16 11:53:12;;;;;;;1.63;1.00;;;;;;;;;;5029436;28;20412;-74
2022/04/16 11:55:45;;;;;;;2.85;0.80;;;;;;;;;;5032401;28;20039;-74
2022/04/16 11:58:11;;;;;;;3.55;2.33;;;;;;;;;;5025177;28;20034;-74
2022/04/16 12:00:47;;;;;;;5.53;2.22;;;;;;;;;;5033585;28;20071;-72
2022/04/16 12:03:14;;;;;;;1.95;0.80;;;;;;;;;;5027708;28;20075;-72
2022/04/16 12:05:42;;;;;;;2.00;0.93;;;;;;;;;;5022942;28;20041;-73
2022/04/16 12:08:09;;;;;;;2.35;0.60;;;;;;;;;;5032337;28;20029;-73
2022/04/16 12:10:36;;;;;;;1.48;0.93;;;;;;;;;;5021047;28;20026;-72
2022/04/16 12:13:09;;;;;;;2.25;0.55;;;;;;;;;;5028925;28;20532;-75
2022/04/16 12:15:39;;;;;;;3.10;0.52;;;;;;;;;;5033322;28;20092;-77
2022/04/16 12:18:11;;;;;;;2.30;0.60;;;;;;;;;;5029928;28;20045;-73
2022/04/16 12:20:45;;;;;;;0.98;0.35;;;;;;;;;;5033384;28;20030;-73
2022/04/16 12:23:13;;;;;;;0.70;0.45;;;;;;;;;;5030891;28;20037;-74
2022/04/16 12:25:41;;;;;;;0.68;0.50;;;;;;;;;;5020131;28;20036;-73
2022/04/16 12:28:10;;;;;;;0.55;0.30;;;;;;;;;;5031954;28;20075;-71
2022/04/16 12:30:37;;;;;;;1.05;0.68;;;;;;;;;;5027413;28;20025;-73
2022/04/16 12:33:10;;;;;;;1.17;0.43;;;;;;;;;;5032537;28;20037;-73
2022/04/16 12:35:38;;;;;;;2.55;0.85;;;;;;;;;;5034718;28;20123;-74
2022/04/16 12:38:05;;;;;;;12.13;1.33;;;;;;;;;;5025900;28;20067;-77
2022/04/16 12:40:31;;;;;;;1.38;0.73;;;;;;;;;;5030663;28;20033;-72
2022/04/16 12:42:58;;;;;;;1.77;0.43;;;;;;;;;;5023619;28;20501;-74
2022/04/16 12:45:25;;;;;;;2.17;0.43;;;;;;;;;;5021490;28;20099;-74
2022/04/16 12:47:51;;;;;;;1.85;0.60;;;;;;;;;;5028718;28;20029;-73
2022/04/16 12:50:17;;;;;;;2.17;0.43;;;;;;;;;;5014146;28;20088;-73
2022/04/16 12:52:44;;;;;;;0.45;0.40;;;;;;;;;;5014361;28;20049;-73
2022/04/16 12:55:10;;;;;;;3.63;0.50;;;;;;;;;;5028289;28;20385;-74
2022/04/16 12:57:36;;;;;;;2.55;0.80;;;;;;;;;;5030448;28;20339;-73
2022/04/16 13:00:03;;;;;;;1.75;0.38;;;;;;;;;;5024724;28;20100;-72
2022/04/16 13:02:29;;;;;;;1.20;0.30;;;;;;;;;;5021590;28;20030;-73
2022/04/16 13:04:55;;;;;;;5.32;0.93;;;;;;;;;;5022861;28;20122;-73
2022/04/16 13:07:22;;;;;;;1.92;0.40;;;;;;;;;;5023803;28;20026;-73
2022/04/16 13:09:48;;;;;;;2.45;0.55;;;;;;;;;;5026665;28;20076;-73
2022/04/16 13:12:16;;;;;;;1.30;0.82;;;;;;;;;;5021764;28;20022;-72
2022/04/16 13:14:44;;;;;;;1.55;0.63;;;;;;;;;;5020337;28;20815;-72
2022/04/16 13:17:11;;;;;;;0.93;0.40;;;;;;;;;;5008763;28;20129;-73
2022/04/16 13:19:37;;;;;;;1.23;0.30;;;;;;;;;;5022960;28;20041;-72
2022/04/16 13:22:03;;;;;;;0.93;0.38;;;;;;;;;;5015026;28;20081;-72
2022/04/16 13:24:29;;;;;;;0.95;0.60;;;;;;;;;;5010976;28;20048;-72
2022/04/16 13:26:55;;;;;;;3.42;0.40;;;;;;;;;;4998410;28;20069;-72
2022/04/16 13:29:21;;;;;;;0.98;0.47;;;;;;;;;;5012345;28;20034;-72
2022/04/16 13:31:47;;;;;;;2.22;0.40;;;;;;;;;;5008890;28;20029;-79
2022/04/16 13:34:14;;;;;;;1.05;0.50;;;;;;;;;;5017185;28;20030;-80
2022/04/16 13:36:40;;;;;;;2.17;0.55;;;;;;;;;;5015765;28;20038;-83
2022/04/16 13:41:37;;;;;;;1.88;0.40;;;;;;;;;;5009798;28;20087;-77
2022/04/16 13:41:53;;;;;;;1.38;0.45;;;;;;;;;;5007329;28;20097;-77
2022/04/16 13:44:19;;;;;;;4.97;3.22;;;;;;;;;;5010474;28;20034;-80
2022/04/16 13:46:45;;;;;;;2.95;1.85;;;;;;;;;;5001074;28;20049;-78
2022/04/16 13:49:11;;;;;;;0.70;0.40;;;;;;;;;;5010335;28;20061;-74
2022/04/16 13:51:37;;;;;;;1.15;0.50;;;;;;;;;;5009406;28;20144;-74
2022/04/16 13:54:03;;;;;;;1.17;0.40;;;;;;;;;;5007956;28;20169;-74
2022/04/16 13:56:29;;;;;;;1.27;0.47;;;;;;;;;;5009249;28;20041;-75
2022/04/16 13:58:56;;;;;;;0.95;0.40;;;;;;;;;;5010127;28;20032;-75
2022/04/16 14:01:22;;;;;;;1.40;0.50;;;;;;;;;;5012687;28;20026;-75
2022/04/16 14:03:49;;;;;;;3.05;0.60;;;;;;;;;;5015039;28;20080;-75
2022/04/16 14:06:16;;;;;;;2.42;0.50;;;;;;;;;;5012178;28;20057;-75
2022/04/16 14:08:42;;;;;;;1.08;0.50;;;;;;;;;;5006824;28;20062;-74
2022/04/16 14:11:08;;;;;;;1.20;0.40;;;;;;;;;;5000432;28;20041;-75
2022/04/16 14:13:35;;;;;;;1.25;0.40;;;;;;;;;;5009553;28;20040;-75
2022/04/16 14:16:02;;;;;;;0.57;0.40;;;;;;;;;;5007991;28;20045;-74
2022/04/16 14:18:29;;;;;;;2.25;0.50;;;;;;;;;;5008634;28;20515;-75
2022/04/16 14:20:55;;;;;;;0.52;0.35;;;;;;;;;;4993484;28;20057;-75
2022/04/16 14:23:21;;;;;;;1.88;1.05;;;;;;;;;;5009845;28;20737;-75
2022/04/16 14:25:47;;;;;;;0.98;0.50;;;;;;;;;;5010988;28;20072;-75
2022/04/16 14:28:14;;;;;;;1.70;0.38;;;;;;;;;;5009673;28;20626;-75
2022/04/16 14:30:40;;;;;;;6.38;0.50;;;;;;;;;;5025011;28;20410;-75
2022/04/16 14:33:07;;;;;;;1.60;0.70;;;;;;;;;;4993168;28;20497;-74
2022/04/16 14:35:33;;;;;;;2.58;0.68;;;;;;;;;;5004854;28;20048;-74
2022/04/16 14:37:59;;;;;;;1.63;0.50;;;;;;;;;;4997758;28;20547;-74
2022/04/16 14:40:25;;;;;;;3.00;1.00;;;;;;;;;;5006935;28;20077;-74
2022/04/16 14:42:51;;;;;;;4.53;1.17;;;;;;;;;;5003939;28;20061;-75
2022/04/16 14:45:17;;;;;;;1.58;0.40;;;;;;;;;;5005401;28;20038;-73
2022/04/16 14:47:44;;;;;;;1.20;0.52;;;;;;;;;;4994414;28;20050;-73
2022/04/16 14:50:11;;;;;;;2.35;0.50;;;;;;;;;;4997223;28;20478;-73
2022/04/16 14:52:37;;;;;;;4.18;0.35;;;;;;;;;;5003722;28;20033;-73
2022/04/16 14:55:03;;;;;;;0.85;0.50;;;;;;;;;;5006724;28;20042;-73